createdAt,value
2023-03-03T00:01:41.078Z,1.60
2023-03-03T00:04:09.433Z,1.60
2023-03-03T00:06:37.738Z,1.50
2023-03-03T00:09:06.110Z,1.50
2023-03-03T00:11:34.453Z,1.40
2023-03-03T00:14:02.765Z,1.40
2023-03-03T00:16:36.629Z,1.40
2023-03-03T00:19:16.446Z,1.40
2023-03-03T00:21:47.646Z,1.30
2023-03-03T00:24:22.904Z,1.30
2023-03-03T00:26:52.941Z,1.30
2023-03-03T00:29:31.367Z,1.30
2023-03-03T00:32:23.868Z,1.30
2023-03-03T00:34:55.621Z,1.30
2023-03-03T00:37:33.414Z,1.20
2023-03-03T00:40:21.085Z,1.20
2023-03-03T00:42:53.732Z,1.20
2023-03-03T00:45:36.415Z,1.20
2023-03-03T00:48:25.204Z,1.20
2023-03-03T00:50:56.184Z,1.30
2023-03-03T00:53:26.289Z,1.30
2023-03-03T00:55:55.300Z,1.30
2023-03-03T00:58:24.788Z,1.30
2023-03-03T01:00:56.701Z,1.30
2023-03-03T01:03:27.630Z,1.30
2023-03-03T01:05:57.380Z,1.30
2023-03-03T01:08:26.016Z,1.30
2023-03-03T01:10:57.656Z,1.40
2023-03-03T01:13:30.206Z,1.30
2023-03-03T01:16:00.653Z,1.30
2023-03-03T01:18:29.483Z,1.30
2023-03-03T01:20:59.419Z,1.30
2023-03-03T01:23:27.718Z,1.20
2023-03-03T01:25:56.082Z,1.20
2023-03-03T01:28:24.353Z,1.20
2023-03-03T01:30:52.827Z,1.20
2023-03-03T01:33:21.189Z,1.20
2023-03-03T01:35:49.732Z,1.20
2023-03-03T01:38:19.357Z,1.20
2023-03-03T01:40:55.229Z,1.20
2023-03-03T01:43:24.051Z,1.20
2023-03-03T01:46:38.273Z,1.20
2023-03-03T01:49:14.624Z,1.20
2023-03-03T01:51:50.424Z,1.20
2023-03-03T01:54:26.454Z,1.30
2023-03-03T01:57:01.423Z,1.30
2023-03-03T01:59:33.499Z,1.20
2023-03-03T02:02:01.904Z,1.20
2023-03-03T02:04:30.754Z,1.20
2023-03-03T02:07:04.423Z,1.20
2023-03-03T02:09:42.799Z,1.30
2023-03-03T02:12:15.476Z,1.30
2023-03-03T02:14:43.869Z,1.30
2023-03-03T02:17:12.690Z,1.30
2023-03-03T02:19:50.728Z,1.30
2023-03-03T02:22:36.007Z,1.30
2023-03-03T02:25:12.925Z,1.30
2023-03-03T02:27:42.631Z,1.40
2023-03-03T02:30:16.686Z,1.40
2023-03-03T02:32:44.943Z,1.40
2023-03-03T02:35:34.392Z,1.40
2023-03-03T02:38:18.882Z,1.40
2023-03-03T02:41:00.995Z,1.40
2023-03-03T02:43:38.161Z,1.40
2023-03-03T02:46:06.634Z,1.30
2023-03-03T02:48:35.034Z,1.30
2023-03-03T02:51:03.339Z,1.20
2023-03-03T02:53:31.634Z,1.30
2023-03-03T02:55:59.915Z,1.20
2023-03-03T02:58:28.199Z,1.30
2023-03-03T03:00:57.943Z,1.30
2023-03-03T03:03:26.432Z,1.30
2023-03-03T03:05:54.848Z,1.30
2023-03-03T03:08:23.229Z,1.30
2023-03-03T03:10:51.747Z,1.20
2023-03-03T03:13:20.060Z,1.30
2023-03-03T03:15:51.154Z,1.30
2023-03-03T03:18:20.628Z,1.30
2023-03-03T03:20:48.870Z,1.30
2023-03-03T03:23:17.232Z,1.20
2023-03-03T03:25:46.582Z,1.20
2023-03-03T03:28:16.580Z,1.20
2023-03-03T03:30:45.922Z,1.30
2023-03-03T03:33:14.423Z,1.20
2023-03-03T03:35:45.724Z,1.20
2023-03-03T03:38:15.194Z,1.20
2023-03-03T03:40:44.413Z,1.20
2023-03-03T03:43:12.848Z,1.10
2023-03-03T03:45:43.572Z,1.10
2023-03-03T03:48:12.058Z,1.10
2023-03-03T03:50:40.408Z,1.10
2023-03-03T03:53:10.166Z,1.10
2023-03-03T03:55:38.501Z,1.00
2023-03-03T03:58:07.046Z,1.00
2023-03-03T04:00:35.386Z,1.00
2023-03-03T04:03:03.784Z,1.00
2023-03-03T04:05:32.115Z,1.00
2023-03-03T04:08:00.421Z,1.00
2023-03-03T04:10:30.114Z,1.00
2023-03-03T04:12:59.205Z,1.00
2023-03-03T04:15:27.580Z,1.00
2023-03-03T04:17:55.919Z,0.90
2023-03-03T04:20:24.337Z,0.90
2023-03-03T04:22:52.634Z,0.90
2023-03-03T04:25:21.495Z,0.90
2023-03-03T04:27:52.108Z,0.80
2023-03-03T04:30:20.577Z,0.80
2023-03-03T04:32:49.650Z,0.80
2023-03-03T04:35:18.153Z,0.80
2023-03-03T04:37:46.466Z,0.70
2023-03-03T04:40:15.004Z,0.70
2023-03-03T04:42:43.439Z,0.70
2023-03-03T04:45:13.905Z,0.70
2023-03-03T04:47:43.053Z,0.70
2023-03-03T04:50:13.480Z,0.70
2023-03-03T04:52:41.764Z,0.70
2023-03-03T04:55:11.851Z,0.70
2023-03-03T04:57:40.157Z,0.70
2023-03-03T05:00:10.461Z,0.60
2023-03-03T05:02:40.284Z,0.60
2023-03-03T05:05:11.276Z,0.60
2023-03-03T05:07:40.432Z,0.60
2023-03-03T05:10:10.559Z,0.60
2023-03-03T05:12:39.036Z,0.60
2023-03-03T05:15:09.015Z,0.60
2023-03-03T05:17:37.354Z,0.60
2023-03-03T05:20:10.309Z,0.60
2023-03-03T05:22:38.630Z,0.60
2023-03-03T05:25:12.156Z,0.60
2023-03-03T05:27:40.692Z,0.60
2023-03-03T05:30:11.388Z,0.60
2023-03-03T05:32:39.983Z,0.60
2023-03-03T05:35:10.974Z,0.60
2023-03-03T05:37:40.559Z,0.60
2023-03-03T05:40:11.115Z,0.60
2023-03-03T05:42:39.468Z,0.70
2023-03-03T05:45:09.282Z,0.70
2023-03-03T05:47:37.700Z,0.70
2023-03-03T05:50:07.037Z,0.70
2023-03-03T05:52:36.650Z,0.70
2023-03-03T05:55:05.136Z,0.70
2023-03-03T05:57:35.913Z,0.70
2023-03-03T06:00:05.537Z,0.70
2023-03-03T06:02:34.774Z,0.70
2023-03-03T06:05:03.051Z,0.70
2023-03-03T06:07:31.339Z,0.70
2023-03-03T06:10:03.687Z,0.70
2023-03-03T06:12:32.230Z,0.70
2023-03-03T06:15:00.510Z,0.70
2023-03-03T06:17:28.814Z,0.70
2023-03-03T06:19:57.082Z,0.70
2023-03-03T06:22:25.398Z,0.70
2023-03-03T06:24:54.898Z,0.70
2023-03-03T06:27:24.506Z,0.70
2023-03-03T06:29:52.961Z,0.70
2023-03-03T06:32:21.340Z,0.70
2023-03-03T06:34:49.658Z,0.70
2023-03-03T06:37:17.957Z,0.70
2023-03-03T06:39:46.311Z,0.70
2023-03-03T06:42:14.598Z,0.80
2023-03-03T06:44:44.259Z,0.80
2023-03-03T06:47:12.548Z,0.80
2023-03-03T06:49:40.812Z,0.70
2023-03-03T06:52:14.961Z,0.80
2023-03-03T06:54:43.518Z,0.80
2023-03-03T06:57:19.272Z,0.80
2023-03-03T06:59:53.732Z,0.90
2023-03-03T07:02:23.518Z,0.90
2023-03-03T07:04:51.788Z,0.90
2023-03-03T07:07:24.630Z,0.90
2023-03-03T07:09:54.919Z,0.90
2023-03-03T07:12:25.367Z,1.00
2023-03-03T07:15:03.111Z,1.00
2023-03-03T07:17:32.505Z,0.90
2023-03-03T07:20:03.006Z,1.00
2023-03-03T07:22:39.146Z,1.10
2023-03-03T07:25:22.532Z,1.10
2023-03-03T07:27:50.819Z,1.10
2023-03-03T07:30:27.467Z,1.10
2023-03-03T07:32:59.178Z,1.20
2023-03-03T07:35:39.274Z,1.20
2023-03-03T07:38:27.651Z,1.20
2023-03-03T07:40:58.733Z,1.20
2023-03-03T07:43:39.062Z,1.20
2023-03-03T07:46:28.525Z,1.30
2023-03-03T07:48:58.925Z,1.30
2023-03-03T07:51:29.727Z,1.30
2023-03-03T07:54:25.305Z,1.30
2023-03-03T07:56:54.056Z,1.40
2023-03-03T07:59:24.614Z,1.40
2023-03-03T08:01:58.240Z,1.40
2023-03-03T08:04:33.917Z,1.40
2023-03-03T08:07:03.668Z,1.50
2023-03-03T08:09:48.313Z,1.50
2023-03-03T08:12:42.465Z,1.50
2023-03-03T08:15:24.789Z,1.50
2023-03-03T08:17:56.966Z,1.50
2023-03-03T08:20:45.789Z,1.60
2023-03-03T08:23:15.459Z,1.60
2023-03-03T08:25:44.683Z,1.60
2023-03-03T08:28:14.075Z,1.70
2023-03-03T08:30:43.736Z,1.70
2023-03-03T08:33:14.185Z,1.70
2023-03-03T08:35:43.110Z,1.70
2023-03-03T08:38:13.043Z,1.70
2023-03-03T08:40:42.473Z,1.70
2023-03-03T08:43:14.543Z,1.80
2023-03-03T08:45:42.912Z,1.80
2023-03-03T08:48:12.639Z,1.80
2023-03-03T08:50:41.538Z,1.80
2023-03-03T08:53:10.732Z,1.80
2023-03-03T08:55:39.233Z,1.90
2023-03-03T08:58:08.006Z,1.90
2023-03-03T09:00:36.850Z,1.90
2023-03-03T09:03:07.146Z,1.90
2023-03-03T09:05:39.171Z,1.90
2023-03-03T09:08:10.792Z,1.90
2023-03-03T09:10:39.383Z,1.90
2023-03-03T09:13:15.048Z,2.00
2023-03-03T09:15:44.017Z,1.90
2023-03-03T09:18:18.329Z,1.90
2023-03-03T09:20:49.887Z,1.90
2023-03-03T09:23:39.721Z,2.00
2023-03-03T09:26:30.671Z,2.00
2023-03-03T09:29:24.984Z,2.00
2023-03-03T09:31:55.636Z,2.00
2023-03-03T09:34:27.790Z,2.00
2023-03-03T09:37:00.073Z,2.00
2023-03-03T09:39:31.662Z,2.00
2023-03-03T09:42:33.673Z,2.00
2023-03-03T09:45:49.798Z,2.10
2023-03-03T09:48:53.968Z,2.10
2023-03-03T09:51:58.878Z,2.10
2023-03-03T09:55:04.126Z,2.10
2023-03-03T09:57:50.518Z,2.20
2023-03-03T10:00:35.952Z,2.20
2023-03-03T10:03:46.525Z,2.20
2023-03-03T10:06:23.720Z,2.20
2023-03-03T10:09:17.902Z,2.20
2023-03-03T10:11:52.047Z,2.30
2023-03-03T10:15:01.212Z,2.30
2023-03-03T10:17:47.262Z,2.40
2023-03-03T10:20:49.656Z,2.40
2023-03-03T10:23:23.357Z,2.40
2023-03-03T10:26:05.039Z,2.50
2023-03-03T10:29:07.455Z,2.50
2023-03-03T10:31:50.583Z,2.60
2023-03-03T10:34:46.111Z,2.60
2023-03-03T10:37:22.561Z,2.70
2023-03-03T10:40:07.367Z,2.70
2023-03-03T10:43:32.557Z,2.80
2023-03-03T10:46:23.219Z,2.80
2023-03-03T10:49:25.184Z,2.90
2023-03-03T10:52:21.227Z,2.90
2023-03-03T10:55:33.091Z,2.90
2023-03-03T10:58:44.388Z,2.90
2023-03-03T11:01:24.672Z,3.00
2023-03-03T11:04:29.457Z,3.00
2023-03-03T11:07:07.037Z,3.00
2023-03-03T11:10:10.000Z,3.10
2023-03-03T11:12:53.467Z,3.20
2023-03-03T11:15:39.740Z,3.20
2023-03-03T11:18:34.161Z,3.20
2023-03-03T11:21:14.311Z,3.20
2023-03-03T11:24:15.147Z,3.20
2023-03-03T11:27:07.958Z,3.30
2023-03-03T11:29:53.818Z,3.40
2023-03-03T11:32:34.955Z,3.50
2023-03-03T11:35:23.736Z,3.50
2023-03-03T11:38:06.054Z,3.60
2023-03-03T11:40:46.508Z,3.60
2023-03-03T11:43:35.599Z,3.70
2023-03-03T11:46:11.122Z,3.70
2023-03-03T11:48:49.901Z,3.90
2023-03-03T11:51:26.247Z,3.90
2023-03-03T11:54:02.640Z,3.90
2023-03-03T11:56:40.184Z,4.10
2023-03-03T11:59:50.255Z,4.10
2023-03-03T12:02:57.389Z,4.10
2023-03-03T12:05:47.085Z,4.10
2023-03-03T12:08:38.152Z,4.20
2023-03-03T12:11:16.432Z,4.20
2023-03-03T12:13:55.549Z,4.30
2023-03-03T12:16:40.326Z,4.40
2023-03-03T12:19:27.374Z,4.40
2023-03-03T12:22:23.345Z,4.40
2023-03-03T12:25:16.001Z,4.30
2023-03-03T12:27:51.808Z,4.30
2023-03-03T12:30:36.949Z,4.30
2023-03-03T12:33:20.836Z,4.50
2023-03-03T12:36:00.444Z,4.80
2023-03-03T12:38:42.340Z,5.10
2023-03-03T12:41:21.284Z,5.30
2023-03-03T12:43:58.127Z,5.60
2023-03-03T12:46:39.512Z,5.70
2023-03-03T12:49:07.918Z,5.80
2023-03-03T12:51:50.028Z,5.90
2023-03-03T12:54:41.256Z,5.80
2023-03-03T12:57:23.338Z,6.10
2023-03-03T13:00:20.208Z,6.10
2023-03-03T13:03:02.021Z,6.00
2023-03-03T13:05:42.689Z,6.00
2023-03-03T13:08:32.315Z,5.90
2023-03-03T13:11:28.464Z,5.90
2023-03-03T13:14:05.364Z,5.90
2023-03-03T13:16:41.800Z,6.00
2023-03-03T13:19:14.482Z,6.00
2023-03-03T13:21:49.126Z,6.20
2023-03-03T13:24:24.948Z,6.30
2023-03-03T13:26:59.618Z,6.30
2023-03-03T13:29:31.616Z,6.40
2023-03-03T13:32:09.882Z,6.50
2023-03-03T13:34:50.434Z,6.50
2023-03-03T13:37:25.214Z,6.50
2023-03-03T13:40:01.576Z,6.60
2023-03-03T13:42:40.720Z,6.70
2023-03-03T13:45:21.497Z,6.70
2023-03-03T13:47:59.662Z,6.50
2023-03-03T13:50:36.167Z,6.40
2023-03-03T13:53:28.301Z,6.50
2023-03-03T13:56:07.342Z,6.60
2023-03-03T13:58:46.716Z,6.70
2023-03-03T14:01:23.790Z,6.60
2023-03-03T14:04:01.607Z,6.70
2023-03-03T14:06:31.373Z,6.70
2023-03-03T14:09:22.030Z,6.60
2023-03-03T14:11:57.673Z,6.70
2023-03-03T14:14:45.475Z,6.70
2023-03-03T14:17:26.026Z,6.70
2023-03-03T14:20:11.907Z,6.70
2023-03-03T14:22:48.317Z,6.70
2023-03-03T14:25:17.718Z,6.90
2023-03-03T14:28:06.510Z,6.80
2023-03-03T14:30:40.424Z,6.90
2023-03-03T14:33:23.998Z,6.90
2023-03-03T14:36:04.522Z,6.90
2023-03-03T14:38:47.199Z,6.90
2023-03-03T14:41:22.976Z,6.90
2023-03-03T14:44:02.337Z,6.90
2023-03-03T14:46:39.657Z,6.90
2023-03-03T14:49:16.609Z,6.90
2023-03-03T14:51:47.716Z,6.90
2023-03-03T14:54:22.538Z,6.90
2023-03-03T14:57:05.006Z,7.10
2023-03-03T14:59:33.886Z,7.10
2023-03-03T15:02:36.474Z,7.10
2023-03-03T15:05:22.097Z,7.10
2023-03-03T15:07:54.636Z,7.20
2023-03-03T15:10:35.759Z,7.10
2023-03-03T15:13:36.127Z,7.10
2023-03-03T15:16:12.443Z,7.20
2023-03-03T15:19:34.779Z,7.20
2023-03-03T15:22:11.394Z,7.10
2023-03-03T15:24:47.429Z,7.10
2023-03-03T15:27:23.526Z,7.10
2023-03-03T15:30:06.695Z,7.10
2023-03-03T15:32:44.716Z,7.00
2023-03-03T15:35:33.058Z,7.10
2023-03-03T15:38:06.039Z,7.10
2023-03-03T15:40:41.447Z,7.10
2023-03-03T15:43:23.878Z,7.10
2023-03-03T15:46:03.976Z,7.00
2023-03-03T15:48:57.249Z,7.00
2023-03-03T15:52:00.976Z,7.00
2023-03-03T15:54:42.781Z,7.00
2023-03-03T15:57:18.814Z,7.00
2023-03-03T16:00:10.601Z,6.90
2023-03-03T16:02:50.769Z,6.80
2023-03-03T16:05:25.984Z,6.80
2023-03-03T16:08:04.741Z,6.80
2023-03-03T16:10:46.446Z,6.80
2023-03-03T16:13:41.390Z,6.70
2023-03-03T16:16:35.234Z,6.70
2023-03-03T16:19:18.374Z,6.60
2023-03-03T16:22:16.111Z,6.50
2023-03-03T16:25:01.456Z,6.60
2023-03-03T16:27:37.626Z,6.50
2023-03-03T16:30:33.096Z,6.50
2023-03-03T16:33:23.653Z,6.40
2023-03-03T16:36:05.154Z,6.40
2023-03-03T16:38:38.450Z,6.30
2023-03-03T16:41:14.852Z,6.30
2023-03-03T16:43:56.431Z,6.20
2023-03-03T16:46:33.099Z,6.20
2023-03-03T16:49:10.257Z,6.20
2023-03-03T16:51:50.575Z,6.00
2023-03-03T16:54:31.475Z,6.00
2023-03-03T16:57:12.848Z,6.00
2023-03-03T16:59:55.662Z,6.00
2023-03-03T17:02:59.859Z,5.90
2023-03-03T17:05:41.215Z,5.80
2023-03-03T17:08:27.932Z,5.70
2023-03-03T17:11:03.856Z,5.60
2023-03-03T17:14:08.117Z,5.60
2023-03-03T17:16:52.643Z,5.50
2023-03-03T17:19:41.705Z,5.50
2023-03-03T17:22:19.696Z,5.40
2023-03-03T17:25:05.141Z,5.30
2023-03-03T17:27:54.257Z,5.20
2023-03-03T17:30:31.575Z,5.20
2023-03-03T17:33:24.831Z,5.00
2023-03-03T17:36:09.597Z,5.00
2023-03-03T17:38:58.048Z,5.00
2023-03-03T17:41:33.096Z,4.90
2023-03-03T17:44:09.526Z,5.00
2023-03-03T17:46:45.576Z,5.00
2023-03-03T17:49:42.144Z,5.10
2023-03-03T17:52:47.556Z,5.00
2023-03-03T17:55:39.488Z,5.00
2023-03-03T17:58:35.628Z,5.00
2023-03-03T18:01:17.893Z,5.00
2023-03-03T18:04:20.746Z,5.00
2023-03-03T18:07:36.198Z,5.10
2023-03-03T18:10:35.678Z,5.00
2023-03-03T18:13:21.613Z,5.00
2023-03-03T18:16:11.900Z,5.10
2023-03-03T18:19:17.967Z,5.10
2023-03-03T18:21:56.282Z,5.10
2023-03-03T18:24:38.847Z,5.10
2023-03-03T18:27:37.242Z,5.10
2023-03-03T18:30:29.672Z,5.00
2023-03-03T18:33:09.976Z,5.10
2023-03-03T18:35:41.599Z,5.10
2023-03-03T18:38:46.351Z,5.10
2023-03-03T18:41:23.646Z,5.10
2023-03-03T18:43:59.405Z,5.10
2023-03-03T18:46:51.657Z,5.10
2023-03-03T18:49:52.535Z,5.00
2023-03-03T18:52:27.132Z,5.10
2023-03-03T18:55:26.338Z,5.00
2023-03-03T18:58:37.030Z,5.00
2023-03-03T19:01:37.315Z,5.10
2023-03-03T19:04:25.374Z,5.10
2023-03-03T19:07:29.736Z,5.10
2023-03-03T19:10:01.807Z,5.10
2023-03-03T19:12:52.877Z,5.10
2023-03-03T19:15:48.341Z,5.10
2023-03-03T19:18:21.992Z,5.10
2023-03-03T19:20:57.149Z,5.10
2023-03-03T19:23:48.977Z,5.00
2023-03-03T19:26:45.843Z,5.00
2023-03-03T19:29:46.369Z,5.00
2023-03-03T19:32:44.877Z,5.00
2023-03-03T19:35:29.924Z,5.00
2023-03-03T19:38:12.603Z,5.00
2023-03-03T19:40:53.904Z,5.00
2023-03-03T19:43:36.664Z,5.00
2023-03-03T19:46:24.905Z,5.00
2023-03-03T19:49:02.604Z,5.00
2023-03-03T19:51:38.194Z,5.00
2023-03-03T19:54:22.386Z,5.00
2023-03-03T19:56:54.829Z,5.00
2023-03-03T19:59:35.063Z,4.90
2023-03-03T20:02:39.554Z,4.90
2023-03-03T20:05:22.108Z,4.90
2023-03-03T20:07:58.594Z,4.90
2023-03-03T20:10:46.225Z,4.90
2023-03-03T20:13:46.803Z,4.90
2023-03-03T20:16:27.718Z,4.90
2023-03-03T20:19:20.385Z,4.80
2023-03-03T20:22:03.353Z,4.80
2023-03-03T20:24:47.013Z,4.80
2023-03-03T20:27:19.878Z,4.80
2023-03-03T20:30:18.216Z,4.80
2023-03-03T20:33:07.331Z,4.80
2023-03-03T20:35:49.355Z,4.80
2023-03-03T20:38:29.637Z,4.80
2023-03-03T20:41:07.481Z,4.70
2023-03-03T20:44:00.426Z,4.70
2023-03-03T20:46:40.959Z,4.70
2023-03-03T20:49:31.817Z,4.80
2023-03-03T20:52:04.976Z,4.80
2023-03-03T20:54:43.878Z,4.80
2023-03-03T20:57:20.021Z,4.80
2023-03-03T20:59:57.732Z,4.80
2023-03-03T21:02:34.147Z,4.80
2023-03-03T21:05:13.902Z,4.90
2023-03-03T21:07:54.996Z,5.00
2023-03-03T21:10:26.172Z,5.00
2023-03-03T21:12:55.298Z,5.00
2023-03-03T21:15:30.712Z,5.10
2023-03-03T21:18:01.003Z,5.10
2023-03-03T21:20:32.909Z,5.10
2023-03-03T21:23:02.847Z,5.10
2023-03-03T21:25:52.134Z,5.10
2023-03-03T21:28:24.971Z,5.10
2023-03-03T21:31:11.852Z,5.10
2023-03-03T21:33:54.082Z,5.20
2023-03-03T21:36:25.303Z,5.10
2023-03-03T21:38:55.187Z,5.10
2023-03-03T21:41:23.737Z,5.10
2023-03-03T21:43:54.185Z,5.10
2023-03-03T21:46:24.466Z,5.10
2023-03-03T21:48:54.348Z,5.10
2023-03-03T21:51:24.431Z,5.10
2023-03-03T21:53:52.736Z,5.10
2023-03-03T21:56:21.065Z,5.00
2023-03-03T21:58:49.386Z,5.00
2023-03-03T22:01:17.699Z,5.00
2023-03-03T22:03:46.148Z,5.00
2023-03-03T22:06:15.818Z,5.00
2023-03-03T22:08:44.075Z,5.00
2023-03-03T22:11:14.158Z,5.00
2023-03-03T22:13:43.308Z,5.10
2023-03-03T22:16:12.527Z,5.00
2023-03-03T22:18:40.994Z,5.00
2023-03-03T22:21:09.271Z,5.00
2023-03-03T22:23:39.080Z,5.00
2023-03-03T22:26:07.902Z,5.00
2023-03-03T22:28:36.238Z,5.00
2023-03-03T22:31:04.739Z,5.00
2023-03-03T22:33:33.065Z,5.00
2023-03-03T22:36:01.368Z,5.00
2023-03-03T22:38:29.657Z,5.00
2023-03-03T22:40:59.583Z,5.00
2023-03-03T22:43:29.966Z,5.00
2023-03-03T22:45:58.587Z,5.00
2023-03-03T22:48:28.913Z,5.00
2023-03-03T22:50:57.255Z,5.00
2023-03-03T22:53:27.078Z,5.00
2023-03-03T22:55:55.522Z,5.00
2023-03-03T22:58:26.231Z,5.00
2023-03-03T23:00:55.111Z,5.10
2023-03-03T23:03:23.514Z,5.00
2023-03-03T23:05:52.208Z,5.00
2023-03-03T23:08:22.057Z,5.00
2023-03-03T23:10:50.623Z,5.00
2023-03-03T23:13:18.918Z,5.00
2023-03-03T23:15:48.629Z,5.00
2023-03-03T23:18:16.978Z,5.00
2023-03-03T23:20:46.169Z,5.00
2023-03-03T23:23:14.510Z,5.00
2023-03-03T23:25:43.038Z,5.00
2023-03-03T23:28:11.453Z,5.00
2023-03-03T23:30:39.734Z,5.00
2023-03-03T23:33:09.584Z,5.00
2023-03-03T23:35:37.980Z,5.00
2023-03-03T23:38:06.454Z,4.90
2023-03-03T23:40:34.724Z,4.90
2023-03-03T23:43:03.031Z,5.00
2023-03-03T23:45:31.346Z,5.00
2023-03-03T23:47:59.674Z,4.90
2023-03-03T23:50:29.586Z,4.90
2023-03-03T23:52:57.882Z,4.90
2023-03-03T23:55:26.141Z,4.90
2023-03-03T23:57:54.437Z,4.90
